createdAt,value
2022-12-04T08:33:50.989Z,1.49
2022-12-04T08:34:55.937Z,1.64
2022-12-04T08:35:58.701Z,1.62
2022-12-04T08:37:00.906Z,1.66
2022-12-04T08:38:03.279Z,1.71
2022-12-04T08:39:05.443Z,1.70
2022-12-04T08:40:07.929Z,1.65
2022-12-04T08:41:12.700Z,1.76
2022-12-04T08:42:14.825Z,1.75
2022-12-04T08:43:17.113Z,1.75
2022-12-04T08:44:19.220Z,1.68
2022-12-04T08:45:21.296Z,1.73
2022-12-04T08:46:25.976Z,1.80
2022-12-04T08:47:28.194Z,1.74
2022-12-04T08:48:30.841Z,1.66
2022-12-04T08:49:33.060Z,1.69
2022-12-04T08:50:35.200Z,1.70
2022-12-04T08:51:37.536Z,1.74
2022-12-04T08:52:39.649Z,1.82
2022-12-04T08:53:41.804Z,1.77
2022-12-04T08:54:43.933Z,1.78
2022-12-04T08:55:46.229Z,1.82
2022-12-04T08:56:48.349Z,1.82
2022-12-04T08:57:52.466Z,1.82
2022-12-04T08:58:55.962Z,1.81
2022-12-04T08:59:58.329Z,1.83
2022-12-04T09:01:09.497Z,1.89
2022-12-04T09:02:12.998Z,1.83
2022-12-04T09:03:17.817Z,1.79
2022-12-04T09:04:20.145Z,1.85
2022-12-04T09:05:22.314Z,1.82
2022-12-04T09:06:25.184Z,1.85
2022-12-04T09:07:28.943Z,1.81
2022-12-04T09:08:32.592Z,1.90
2022-12-04T09:09:35.494Z,1.85
2022-12-04T09:10:38.344Z,1.89
2022-12-04T09:11:40.520Z,1.99
2022-12-04T09:12:42.788Z,2.07
2022-12-04T09:13:45.853Z,2.05
2022-12-04T09:14:48.015Z,2.02
2022-12-04T09:15:50.304Z,2.10
2022-12-04T09:16:53.273Z,2.06
2022-12-04T09:17:55.392Z,2.10
2022-12-04T09:18:57.784Z,2.05
2022-12-04T09:20:01.336Z,2.04
2022-12-04T09:21:06.796Z,2.14
2022-12-04T09:22:08.941Z,2.00
2022-12-04T09:23:11.129Z,1.97
2022-12-04T09:24:13.520Z,1.97
2022-12-04T09:25:16.019Z,2.00
2022-12-04T09:26:22.901Z,2.05
2022-12-04T09:27:25.011Z,1.99
2022-12-04T09:28:28.156Z,1.97
2022-12-04T09:29:30.288Z,1.89
2022-12-04T09:30:32.422Z,1.92
2022-12-04T09:31:34.655Z,1.91
2022-12-04T09:32:37.208Z,1.96
2022-12-04T09:33:39.367Z,2.00
2022-12-04T09:34:41.492Z,1.93
2022-12-04T09:35:44.092Z,1.93
2022-12-04T09:36:46.283Z,2.07
2022-12-04T09:37:48.417Z,2.06
2022-12-04T09:38:53.074Z,2.05
2022-12-04T09:39:55.407Z,1.99
2022-12-04T09:41:19.288Z,2.17
2022-12-04T09:42:47.774Z,2.15
2022-12-04T09:44:08.536Z,2.08
2022-12-04T09:45:10.573Z,1.96
2022-12-04T09:46:27.124Z,2.06
2022-12-04T09:47:43.448Z,1.98
2022-12-04T09:48:48.662Z,1.85
2022-12-04T09:50:03.480Z,1.97
2022-12-04T09:51:06.962Z,1.98
2022-12-04T09:52:34.882Z,1.98
2022-12-04T09:53:52.825Z,2.12
2022-12-04T09:54:55.732Z,2.09
2022-12-04T09:55:57.819Z,2.09
2022-12-04T09:57:05.716Z,2.02
2022-12-04T09:58:19.400Z,1.95
2022-12-04T09:59:25.690Z,1.91
2022-12-04T10:00:29.687Z,1.84
2022-12-04T10:02:03.457Z,1.91
2022-12-04T10:03:11.933Z,2.05
2022-12-04T10:04:15.937Z,2.01
2022-12-04T10:05:43.955Z,2.01
2022-12-04T10:07:04.906Z,2.01
2022-12-04T10:08:07.066Z,1.97
2022-12-04T10:09:35.925Z,2.01
2022-12-04T10:10:40.516Z,2.10
2022-12-04T10:11:55.831Z,2.08
2022-12-04T10:13:11.529Z,2.21
2022-12-04T10:14:21.965Z,2.25
2022-12-04T10:15:31.788Z,2.29
2022-12-04T10:16:55.568Z,2.27
2022-12-04T10:18:00.637Z,2.37
2022-12-04T10:19:16.343Z,2.17
2022-12-04T10:21:01.831Z,2.27
2022-12-04T10:22:11.757Z,2.34
2022-12-04T10:23:35.363Z,2.37
2022-12-04T10:24:53.824Z,2.53
2022-12-04T10:25:56.058Z,2.40
2022-12-04T10:27:02.215Z,2.44
2022-12-04T10:28:19.347Z,2.42
2022-12-04T10:29:26.136Z,2.31
2022-12-04T10:30:34.719Z,2.31
2022-12-04T10:31:39.777Z,2.33
2022-12-04T10:32:44.596Z,2.24
2022-12-04T10:33:58.648Z,2.31
2022-12-04T10:35:25.261Z,2.33
2022-12-04T10:36:32.858Z,2.36
2022-12-04T10:37:40.370Z,2.34
2022-12-04T10:39:01.161Z,2.35
2022-12-04T10:40:28.447Z,2.33
2022-12-04T10:41:51.238Z,2.28
2022-12-04T10:43:12.513Z,2.27
2022-12-04T10:44:16.614Z,2.26
2022-12-04T10:45:19.920Z,2.20
2022-12-04T10:46:26.664Z,2.23
2022-12-04T10:47:29.087Z,2.22
2022-12-04T10:48:40.460Z,2.30
2022-12-04T10:49:42.626Z,2.19
2022-12-04T10:50:44.772Z,2.19
2022-12-04T10:51:47.894Z,2.27
2022-12-04T10:52:50.888Z,2.25
2022-12-04T10:53:53.369Z,2.26
2022-12-04T10:54:59.698Z,2.34
2022-12-04T10:56:18.096Z,2.36
2022-12-04T10:57:20.234Z,2.31
2022-12-04T10:58:22.447Z,2.37
2022-12-04T10:59:25.210Z,2.38
2022-12-04T11:00:33.659Z,2.42
2022-12-04T11:01:36.019Z,2.36
2022-12-04T11:02:39.414Z,2.44
2022-12-04T11:03:46.248Z,2.48
2022-12-04T11:04:56.945Z,2.52
2022-12-04T11:06:03.629Z,2.50
2022-12-04T11:07:14.907Z,2.57
2022-12-04T11:08:26.927Z,2.57
2022-12-04T11:09:30.359Z,2.54
2022-12-04T11:10:35.779Z,2.48
2022-12-04T11:11:39.182Z,2.46
2022-12-04T11:12:41.266Z,2.46
2022-12-04T11:13:43.419Z,2.44
2022-12-04T11:14:47.374Z,2.47
2022-12-04T11:15:52.282Z,2.49
2022-12-04T11:17:04.020Z,2.50
2022-12-04T11:18:16.887Z,2.51
2022-12-04T11:19:28.289Z,2.62
2022-12-04T11:20:30.482Z,2.56
2022-12-04T11:21:32.824Z,2.55
2022-12-04T11:22:48.082Z,2.60
2022-12-04T11:23:52.985Z,2.64
2022-12-04T11:24:58.064Z,2.59
2022-12-04T11:26:05.918Z,2.54
2022-12-04T11:27:22.603Z,2.57
2022-12-04T11:28:46.120Z,2.68
2022-12-04T11:29:50.441Z,2.57
2022-12-04T11:30:55.761Z,2.57
2022-12-04T11:32:04.154Z,2.57
2022-12-04T11:33:28.968Z,2.60
2022-12-04T11:34:39.319Z,2.64
2022-12-04T11:35:41.723Z,2.59
2022-12-04T11:36:47.487Z,2.57
2022-12-04T11:38:28.163Z,2.63
2022-12-04T11:39:36.706Z,2.61
2022-12-04T11:40:39.522Z,2.56
2022-12-04T11:41:42.632Z,2.58
2022-12-04T11:42:44.889Z,2.55
2022-12-04T11:43:49.168Z,2.58
2022-12-04T11:44:59.917Z,2.59
2022-12-04T11:46:02.035Z,2.64
2022-12-04T11:47:06.137Z,2.64
2022-12-04T11:48:16.929Z,2.67
2022-12-04T11:49:23.013Z,2.73
2022-12-04T11:51:02.923Z,2.73
2022-12-04T11:52:23.116Z,2.73
2022-12-04T11:53:43.483Z,2.81
2022-12-04T11:55:02.625Z,2.75
2022-12-04T11:56:14.107Z,2.68
2022-12-04T11:57:29.540Z,2.74
2022-12-04T11:59:04.185Z,2.70
2022-12-04T12:00:13.285Z,2.68
2022-12-04T12:01:36.963Z,2.67
2022-12-04T12:03:15.102Z,2.66
2022-12-04T12:04:39.434Z,2.71
2022-12-04T12:05:47.747Z,2.65
2022-12-04T12:06:58.796Z,2.73
2022-12-04T12:08:16.294Z,2.74
2022-12-04T12:09:41.505Z,2.70
2022-12-04T12:11:06.461Z,2.74
2022-12-04T12:12:27.038Z,2.68
2022-12-04T12:14:08.817Z,2.68
2022-12-04T12:15:17.472Z,2.60
2022-12-04T12:16:48.503Z,2.63
2022-12-04T12:18:11.372Z,2.65
2022-12-04T12:19:58.595Z,2.62
2022-12-04T12:21:20.033Z,2.59
2022-12-04T12:22:56.810Z,2.59
2022-12-04T12:24:17.067Z,2.46
2022-12-04T12:25:52.068Z,2.49
2022-12-04T12:27:18.687Z,2.55
2022-12-04T12:28:30.645Z,2.46
2022-12-04T12:29:41.703Z,2.50
2022-12-04T12:31:13.048Z,2.57
2022-12-04T12:32:24.052Z,2.60
2022-12-04T12:33:31.086Z,2.58
2022-12-04T12:34:38.972Z,2.61
2022-12-04T12:36:00.720Z,2.70
2022-12-04T12:37:10.218Z,2.54
2022-12-04T12:38:18.308Z,2.55
2022-12-04T12:39:26.638Z,2.62
2022-12-04T12:40:31.695Z,2.51
2022-12-04T12:41:47.179Z,2.64
2022-12-04T12:42:58.436Z,2.66
2022-12-04T12:44:05.104Z,2.57
2022-12-04T12:45:24.958Z,2.58
2022-12-04T12:46:34.076Z,2.65
2022-12-04T12:47:45.474Z,2.75
2022-12-04T12:49:02.758Z,2.66
2022-12-04T12:50:16.503Z,2.75
2022-12-04T12:51:30.145Z,2.84
2022-12-04T12:52:51.655Z,2.82
2022-12-04T12:53:57.073Z,2.84
2022-12-04T12:55:05.575Z,2.92
2022-12-04T12:56:13.086Z,2.87
2022-12-04T12:57:23.136Z,2.96
2022-12-04T12:58:33.078Z,2.91
2022-12-04T12:59:42.057Z,2.86
2022-12-04T13:01:02.628Z,2.84
2022-12-04T13:02:22.976Z,2.77
2022-12-04T13:03:33.703Z,2.81
2022-12-04T13:04:40.308Z,2.86
2022-12-04T13:05:48.844Z,2.78
2022-12-04T13:07:06.616Z,2.81
2022-12-04T13:08:50.691Z,2.87
2022-12-04T13:10:24.259Z,2.89
2022-12-04T13:11:28.769Z,2.82
2022-12-04T13:12:44.797Z,2.90
2022-12-04T13:13:53.154Z,2.92
2022-12-04T13:14:55.852Z,2.91
2022-12-04T13:16:23.275Z,3.03
2022-12-04T13:17:31.477Z,3.07
2022-12-04T13:19:01.395Z,2.97
2022-12-04T13:20:12.935Z,2.94
2022-12-04T13:21:29.842Z,2.96
2022-12-04T13:22:35.226Z,2.85
2022-12-04T13:24:21.497Z,2.93
2022-12-04T13:25:39.493Z,2.96
2022-12-04T13:26:54.073Z,2.93
2022-12-04T13:28:08.541Z,3.06
2022-12-04T13:29:48.123Z,2.92
2022-12-04T13:30:56.498Z,2.98
2022-12-04T13:32:04.711Z,2.92
2022-12-04T13:33:25.113Z,3.02
2022-12-04T13:34:35.597Z,2.88
2022-12-04T13:35:52.709Z,3.02
2022-12-04T13:37:01.047Z,3.03
2022-12-04T13:38:35.509Z,2.92
2022-12-04T13:40:15.263Z,3.02
2022-12-04T13:41:21.347Z,2.97
2022-12-04T13:42:29.089Z,2.97
2022-12-04T13:43:42.425Z,2.96
2022-12-04T13:44:54.722Z,3.00
2022-12-04T13:46:00.760Z,3.01
2022-12-04T13:47:06.725Z,2.97
2022-12-04T13:48:10.715Z,2.94
2022-12-04T13:49:19.643Z,2.92
2022-12-04T13:50:35.095Z,3.01
2022-12-04T13:51:40.789Z,2.97
2022-12-04T13:52:43.237Z,2.90
2022-12-04T13:53:46.200Z,2.91
2022-12-04T13:54:59.573Z,3.00
2022-12-04T13:56:07.546Z,2.97
2022-12-04T13:57:17.059Z,3.01
2022-12-04T13:58:19.480Z,2.89
2022-12-04T13:59:28.169Z,2.96
2022-12-04T14:00:35.641Z,2.94
2022-12-04T14:01:41.364Z,2.97
2022-12-04T14:02:51.690Z,2.97
2022-12-04T14:03:59.549Z,2.95
2022-12-04T14:05:07.315Z,2.95
2022-12-04T14:06:32.093Z,2.95
2022-12-04T14:07:37.755Z,2.92
2022-12-04T14:08:43.160Z,2.90
2022-12-04T14:09:53.424Z,2.94
2022-12-04T14:11:12.827Z,2.98
2022-12-04T14:12:17.171Z,3.02
2022-12-04T14:13:23.586Z,3.02
2022-12-04T14:14:27.694Z,3.01
2022-12-04T14:15:35.000Z,2.94
2022-12-04T14:16:41.076Z,3.00
2022-12-04T14:17:55.837Z,3.05
2022-12-04T14:19:00.709Z,3.07
2022-12-04T14:20:21.586Z,3.14
2022-12-04T14:21:24.662Z,3.04
2022-12-04T14:22:43.328Z,3.07
2022-12-04T14:23:45.627Z,3.08
2022-12-04T14:24:47.785Z,2.97
2022-12-04T14:25:51.244Z,3.03
2022-12-04T14:27:11.105Z,3.03
2022-12-04T14:28:41.667Z,3.10
2022-12-04T14:29:49.467Z,3.07
2022-12-04T14:31:18.762Z,3.07
2022-12-04T14:32:27.806Z,3.11
2022-12-04T14:33:32.150Z,2.98
2022-12-04T14:34:36.271Z,3.03
2022-12-04T14:35:47.855Z,3.10
2022-12-04T14:36:55.057Z,3.11
2022-12-04T14:38:06.547Z,3.00
2022-12-04T14:39:15.433Z,2.94
2022-12-04T14:40:51.923Z,3.04
2022-12-04T14:42:06.269Z,3.09
2022-12-04T14:43:18.584Z,3.11
2022-12-04T14:44:39.132Z,3.10
2022-12-04T14:45:51.021Z,3.08
2022-12-04T14:46:58.207Z,3.06
2022-12-04T14:48:24.690Z,3.08
2022-12-04T14:50:00.545Z,3.10
2022-12-04T14:51:25.298Z,3.10
2022-12-04T14:52:35.200Z,3.03
2022-12-04T14:53:49.645Z,3.06
2022-12-04T14:55:29.217Z,3.09
2022-12-04T14:57:09.287Z,3.18
2022-12-04T14:58:30.780Z,3.12
2022-12-04T14:59:45.650Z,3.16
2022-12-04T15:00:53.171Z,3.21
2022-12-04T15:01:56.017Z,3.09
2022-12-04T15:03:00.734Z,3.13
2022-12-04T15:04:34.689Z,3.15
2022-12-04T15:05:37.269Z,3.06
2022-12-04T15:06:40.080Z,3.17
2022-12-04T15:07:49.983Z,3.12
2022-12-04T15:09:16.377Z,3.11
2022-12-04T15:10:46.007Z,3.10
2022-12-04T15:12:09.422Z,3.06
2022-12-04T15:13:16.003Z,3.07
2022-12-04T15:14:20.632Z,3.11
2022-12-04T15:15:28.133Z,3.14
2022-12-04T15:16:30.374Z,3.13
2022-12-04T15:17:32.534Z,3.14
2022-12-04T15:18:39.408Z,3.12
2022-12-04T15:19:42.662Z,3.14
2022-12-04T15:20:57.113Z,3.19
2022-12-04T15:21:59.301Z,3.17
2022-12-04T15:23:03.232Z,3.09
2022-12-04T15:24:10.581Z,3.12
2022-12-04T15:25:22.503Z,3.20
2022-12-04T15:26:26.748Z,3.20
2022-12-04T15:27:32.675Z,3.28
2022-12-04T15:28:44.204Z,3.26
2022-12-04T15:29:49.114Z,3.23
2022-12-04T15:30:52.520Z,3.13
2022-12-04T15:31:59.972Z,3.27
2022-12-04T15:33:02.228Z,3.19
2022-12-04T15:34:13.185Z,3.18
2022-12-04T15:35:31.899Z,3.37
2022-12-04T15:36:46.602Z,3.22
2022-12-04T15:37:49.198Z,3.27
2022-12-04T15:38:52.905Z,3.27
2022-12-04T15:39:56.393Z,3.25
2022-12-04T15:41:00.686Z,3.31
2022-12-04T15:42:24.444Z,3.31
2022-12-04T15:43:31.276Z,3.32
2022-12-04T15:44:35.279Z,3.25
2022-12-04T15:45:37.757Z,3.20
2022-12-04T15:46:43.610Z,3.26
2022-12-04T15:47:45.840Z,3.12
2022-12-04T15:48:49.122Z,3.12
2022-12-04T15:49:51.578Z,3.27
2022-12-04T15:51:02.776Z,3.30
2022-12-04T15:52:10.791Z,3.22
2022-12-04T15:53:20.799Z,3.27
2022-12-04T15:54:26.172Z,3.26
2022-12-04T15:55:32.414Z,3.31
2022-12-04T15:56:34.537Z,3.19
2022-12-04T15:57:42.539Z,3.25
2022-12-04T15:58:57.467Z,3.32
2022-12-04T16:00:05.295Z,3.30
2022-12-04T16:01:10.581Z,3.33
2022-12-04T16:02:33.075Z,3.31
2022-12-04T16:03:44.075Z,3.34
2022-12-04T16:04:46.351Z,3.25
2022-12-04T16:05:48.656Z,3.20
2022-12-04T16:06:53.713Z,3.26
2022-12-04T16:07:58.662Z,3.26
2022-12-04T16:09:18.512Z,3.26
2022-12-04T16:10:30.152Z,3.37
2022-12-04T16:11:36.371Z,3.36
2022-12-04T16:12:38.827Z,3.31
2022-12-04T16:13:40.965Z,3.27
2022-12-04T16:14:43.168Z,3.32
2022-12-04T16:15:45.378Z,3.26
2022-12-04T16:16:50.099Z,3.30
2022-12-04T16:17:53.186Z,3.30
2022-12-04T16:18:55.731Z,3.37
2022-12-04T16:19:59.160Z,3.42
2022-12-04T16:21:01.450Z,3.30
2022-12-04T16:22:12.068Z,3.37
2022-12-04T16:23:14.212Z,3.34
2022-12-04T16:24:17.848Z,3.32
2022-12-04T16:25:20.296Z,3.36
2022-12-04T16:26:23.797Z,3.37
2022-12-04T16:27:25.954Z,3.40
2022-12-04T16:28:28.112Z,3.39
2022-12-04T16:29:31.417Z,3.38
2022-12-04T16:30:35.581Z,3.43
2022-12-04T16:31:38.690Z,3.47
2022-12-04T16:32:41.164Z,3.36
2022-12-04T16:33:43.262Z,3.42
2022-12-04T16:34:46.005Z,3.35
2022-12-04T16:35:48.289Z,3.42
2022-12-04T16:36:50.400Z,3.42
2022-12-04T16:37:52.638Z,3.38
2022-12-04T16:38:55.021Z,3.35
2022-12-04T16:39:58.368Z,3.40
2022-12-04T16:41:00.472Z,3.33
2022-12-04T16:42:02.590Z,3.35
2022-12-04T16:43:04.692Z,3.32
2022-12-04T16:44:13.911Z,3.36
2022-12-04T16:45:31.337Z,3.41
2022-12-04T16:46:33.678Z,3.40
2022-12-04T16:47:36.008Z,3.39
2022-12-04T16:48:38.460Z,3.41
2022-12-04T16:49:41.616Z,3.37
2022-12-04T16:50:44.649Z,3.36
2022-12-04T16:51:51.117Z,3.38
2022-12-04T16:52:53.996Z,3.32
2022-12-04T16:53:56.234Z,3.34
2022-12-04T16:55:03.127Z,3.38
2022-12-04T16:56:09.231Z,3.42
2022-12-04T16:57:11.415Z,3.37
2022-12-04T16:58:14.074Z,3.38
2022-12-04T16:59:16.247Z,3.40
2022-12-04T17:00:19.426Z,3.38
2022-12-04T17:01:26.290Z,3.35
2022-12-04T17:02:28.950Z,3.35
2022-12-04T17:03:33.589Z,3.37
2022-12-04T17:04:36.858Z,3.35
2022-12-04T17:05:39.086Z,3.38
2022-12-04T17:06:41.812Z,3.39
2022-12-04T17:07:44.612Z,3.41
2022-12-04T17:08:47.149Z,3.46
2022-12-04T17:09:49.475Z,3.43
2022-12-04T17:10:52.288Z,3.43
2022-12-04T17:11:54.446Z,3.40
2022-12-04T17:12:57.480Z,3.39
2022-12-04T17:14:00.123Z,3.43
2022-12-04T17:15:05.002Z,3.40
2022-12-04T17:16:07.489Z,3.39
2022-12-04T17:17:09.632Z,3.34
2022-12-04T17:18:16.356Z,3.41
2022-12-04T17:19:21.656Z,3.40
2022-12-04T17:20:24.276Z,3.45
2022-12-04T17:21:26.475Z,3.45
2022-12-04T17:22:28.883Z,3.49
2022-12-04T17:23:30.979Z,3.50
2022-12-04T17:24:33.411Z,3.47
2022-12-04T17:25:35.483Z,3.43
2022-12-04T17:26:37.708Z,3.43
2022-12-04T17:27:40.393Z,3.47
2022-12-04T17:28:42.712Z,3.44
2022-12-04T17:29:44.858Z,3.51
2022-12-04T17:30:47.043Z,3.49
2022-12-04T17:31:49.308Z,3.48
2022-12-04T17:32:51.537Z,3.47
2022-12-04T17:33:53.743Z,3.48
2022-12-04T17:34:56.205Z,3.48
2022-12-04T17:36:00.259Z,3.50
2022-12-04T17:37:02.469Z,3.49
2022-12-04T17:38:06.350Z,3.48
2022-12-04T17:39:11.539Z,3.44
2022-12-04T17:40:14.670Z,3.49
2022-12-04T17:41:16.893Z,3.48
2022-12-04T17:42:19.422Z,3.48
2022-12-04T17:43:22.332Z,3.51
2022-12-04T17:44:24.532Z,3.51
2022-12-04T17:45:26.697Z,3.55
2022-12-04T17:46:29.054Z,3.54
2022-12-04T17:47:31.308Z,3.53
2022-12-04T17:48:33.436Z,3.54
2022-12-04T17:49:35.741Z,3.56
2022-12-04T17:50:37.825Z,3.59
2022-12-04T17:51:39.964Z,3.60
2022-12-04T17:52:42.085Z,3.56
2022-12-04T17:53:44.964Z,3.54
2022-12-04T17:54:52.408Z,3.54
2022-12-04T17:55:55.078Z,3.61
2022-12-04T17:56:58.145Z,3.62
2022-12-04T17:58:00.832Z,3.65
2022-12-04T17:59:03.263Z,3.66
2022-12-04T18:00:06.475Z,3.68
2022-12-04T18:01:23.667Z,3.70
2022-12-04T18:02:25.863Z,3.64
2022-12-04T18:03:28.347Z,3.63
2022-12-04T18:04:30.577Z,3.61
2022-12-04T18:05:32.940Z,3.66
2022-12-04T18:06:38.023Z,3.66
2022-12-04T18:07:40.139Z,3.64
2022-12-04T18:08:48.155Z,3.68
2022-12-04T18:09:52.046Z,3.66
2022-12-04T18:10:54.734Z,3.68
2022-12-04T18:11:58.552Z,3.66
2022-12-04T18:13:00.639Z,3.67
2022-12-04T18:14:11.445Z,3.70
2022-12-04T18:15:14.309Z,3.67
2022-12-04T18:16:16.763Z,3.69
2022-12-04T18:17:20.877Z,3.76
2022-12-04T18:18:23.026Z,3.79
2022-12-04T18:19:28.297Z,3.78
2022-12-04T18:20:30.882Z,3.74
2022-12-04T18:21:34.143Z,3.78
2022-12-04T18:22:36.552Z,3.75
2022-12-04T18:23:45.078Z,3.74
2022-12-04T18:24:47.305Z,3.78
2022-12-04T18:25:57.771Z,3.78
2022-12-04T18:27:00.006Z,3.74
2022-12-04T18:28:02.269Z,3.76
2022-12-04T18:29:04.846Z,3.77
2022-12-04T18:30:07.633Z,3.77
2022-12-04T18:31:10.367Z,3.77
2022-12-04T18:32:12.633Z,3.77
2022-12-04T18:33:18.967Z,3.75
2022-12-04T18:34:21.968Z,3.80
2022-12-04T18:35:24.067Z,3.82
2022-12-04T18:36:30.116Z,3.84
2022-12-04T18:37:34.421Z,3.83
2022-12-04T18:38:37.371Z,3.76
2022-12-04T18:39:39.517Z,3.77
2022-12-04T18:40:42.881Z,3.82
2022-12-04T18:41:45.532Z,3.78
2022-12-04T18:42:47.656Z,3.80
2022-12-04T18:43:50.643Z,3.77
2022-12-04T18:44:52.761Z,3.86
2022-12-04T18:46:04.052Z,3.84
2022-12-04T18:47:09.089Z,3.84
2022-12-04T18:48:16.896Z,3.88
2022-12-04T18:49:19.128Z,3.85
2022-12-04T18:50:21.256Z,3.88
2022-12-04T18:51:29.414Z,3.91
2022-12-04T18:52:35.676Z,3.92
2022-12-04T18:53:37.942Z,3.90
2022-12-04T18:54:40.050Z,3.84
2022-12-04T18:55:42.118Z,3.85
2022-12-04T18:56:44.861Z,3.84
2022-12-04T18:57:46.974Z,3.83
2022-12-04T18:58:49.533Z,3.83
2022-12-04T18:59:52.334Z,3.85
2022-12-04T19:00:54.539Z,3.83
2022-12-04T19:01:56.757Z,3.86
2022-12-04T19:02:58.929Z,3.89
2022-12-04T19:04:04.454Z,3.94
2022-12-04T19:05:06.843Z,4.02
2022-12-04T19:06:09.084Z,4.00
2022-12-04T19:07:11.328Z,4.02
2022-12-04T19:08:13.645Z,4.00
2022-12-04T19:09:35.477Z,4.09
2022-12-04T19:10:45.043Z,3.98
2022-12-04T19:11:47.868Z,3.94
2022-12-04T19:12:52.232Z,3.94
2022-12-04T19:13:54.799Z,3.99
2022-12-04T19:14:56.959Z,4.02
2022-12-04T19:15:59.125Z,4.03
2022-12-04T19:17:01.406Z,4.04
2022-12-04T19:18:03.624Z,4.05
2022-12-04T19:19:05.745Z,4.07
2022-12-04T19:20:08.789Z,4.08
2022-12-04T19:21:11.349Z,4.01
2022-12-04T19:22:13.651Z,3.94
2022-12-04T19:23:15.767Z,3.96
2022-12-04T19:24:18.063Z,4.00
2022-12-04T19:25:20.148Z,3.99
2022-12-04T19:26:23.166Z,4.03
2022-12-04T19:27:27.624Z,3.96
2022-12-04T19:28:30.023Z,3.97
2022-12-04T19:29:32.096Z,4.02
2022-12-04T19:30:34.952Z,4.00
2022-12-04T19:31:37.953Z,4.04
2022-12-04T19:32:40.284Z,4.02
2022-12-04T19:33:42.416Z,3.98
2022-12-04T19:34:44.545Z,4.00
2022-12-04T19:36:03.797Z,4.10
2022-12-04T19:37:06.912Z,4.01
2022-12-04T19:38:09.106Z,4.01
2022-12-04T19:39:11.313Z,4.05
2022-12-04T19:40:14.090Z,4.08
2022-12-04T19:41:27.955Z,4.09
2022-12-04T19:42:31.502Z,4.09
2022-12-04T19:43:35.412Z,4.06
2022-12-04T19:44:48.269Z,4.04
2022-12-04T19:45:51.144Z,4.03
2022-12-04T19:46:53.312Z,4.07
2022-12-04T19:47:55.428Z,4.05
2022-12-04T19:49:03.426Z,4.08
2022-12-04T19:50:06.244Z,3.97
2022-12-04T19:51:15.415Z,4.02
2022-12-04T19:52:17.701Z,4.01
2022-12-04T19:53:20.076Z,4.03
2022-12-04T19:54:23.716Z,4.03
2022-12-04T19:55:25.822Z,4.01
2022-12-04T19:56:31.366Z,4.05
2022-12-04T19:57:33.503Z,4.02
2022-12-04T19:58:35.854Z,4.05
2022-12-04T19:59:43.081Z,4.07
2022-12-04T20:00:48.453Z,4.13
2022-12-04T20:01:52.392Z,4.14
2022-12-04T20:02:54.876Z,4.10
2022-12-04T20:03:57.728Z,4.16
2022-12-04T20:04:59.868Z,4.16
2022-12-04T20:06:07.867Z,4.21
2022-12-04T20:07:10.284Z,4.12
2022-12-04T20:09:18.068Z,4.18
2022-12-04T20:10:20.936Z,4.13
2022-12-04T20:11:23.879Z,4.14
2022-12-04T20:12:25.983Z,4.16
2022-12-04T20:13:28.296Z,4.20
2022-12-04T20:14:31.575Z,4.22
2022-12-04T20:15:37.646Z,4.20
2022-12-04T20:16:40.839Z,4.19
2022-12-04T20:17:43.291Z,4.16
2022-12-04T20:18:45.684Z,4.19
2022-12-04T20:19:47.805Z,4.21
2022-12-04T20:21:01.477Z,4.20
2022-12-04T20:22:03.888Z,4.18
2022-12-04T20:23:05.973Z,4.21
2022-12-04T20:24:08.449Z,4.23
2022-12-04T20:25:10.617Z,4.17
2022-12-04T20:26:14.319Z,4.19
2022-12-04T20:27:16.735Z,4.16
2022-12-04T20:28:20.144Z,4.22
2022-12-04T20:29:22.732Z,4.24
2022-12-04T20:30:24.917Z,4.24
2022-12-04T20:31:38.756Z,4.20
2022-12-04T20:32:40.857Z,4.13
2022-12-04T20:33:44.545Z,4.19
2022-12-04T20:34:46.781Z,4.18
2022-12-04T20:35:49.062Z,4.10
2022-12-04T20:36:51.250Z,4.10
2022-12-04T20:37:53.352Z,4.10
2022-12-04T20:38:58.794Z,4.10
2022-12-04T20:40:02.481Z,4.07
2022-12-04T20:41:10.007Z,4.16
2022-12-04T20:42:12.186Z,4.24
2022-12-04T20:43:14.405Z,4.15
2022-12-04T20:44:18.879Z,4.19
2022-12-04T20:45:21.147Z,4.18
2022-12-04T20:46:26.535Z,4.25
2022-12-04T20:47:29.396Z,4.19
2022-12-04T20:48:31.509Z,4.20
2022-12-04T20:49:33.626Z,4.23
2022-12-04T20:50:35.881Z,4.20
2022-12-04T20:51:40.684Z,4.19
2022-12-04T20:52:42.956Z,4.19
2022-12-04T20:53:46.312Z,4.21
2022-12-04T20:54:48.495Z,4.24
2022-12-04T20:55:54.886Z,4.35
2022-12-04T20:56:57.229Z,4.31
2022-12-04T20:57:59.499Z,4.25
2022-12-04T20:59:05.099Z,4.26
2022-12-04T21:00:08.014Z,4.27
2022-12-04T21:01:18.364Z,4.27
2022-12-04T21:02:20.561Z,4.25
2022-12-04T21:03:23.079Z,4.26
2022-12-04T21:04:25.258Z,4.24
2022-12-04T21:05:27.408Z,4.23
2022-12-04T21:06:37.153Z,4.31
2022-12-04T21:07:39.373Z,4.25
2022-12-04T21:08:56.035Z,4.24
2022-12-04T21:09:58.747Z,4.27
2022-12-04T21:11:01.296Z,4.27
2022-12-04T21:12:24.006Z,4.31
2022-12-04T21:13:44.910Z,4.30
2022-12-04T21:15:05.620Z,4.37
2022-12-04T21:16:10.437Z,4.43
2022-12-04T21:17:18.410Z,4.39
2022-12-04T21:18:21.787Z,4.38
2022-12-04T21:19:24.519Z,4.41
2022-12-04T21:20:27.066Z,4.38
2022-12-04T21:21:29.161Z,4.41
2022-12-04T21:22:31.713Z,4.57
2022-12-04T21:23:35.876Z,4.57
2022-12-04T21:24:39.189Z,4.49
2022-12-04T21:25:41.323Z,4.45
2022-12-04T21:26:44.523Z,4.56
2022-12-04T21:27:46.654Z,4.59
2022-12-04T21:28:48.799Z,4.48
2022-12-04T21:29:51.400Z,4.51
2022-12-04T21:31:00.578Z,4.49
2022-12-04T21:32:03.320Z,4.45
2022-12-04T21:33:05.472Z,4.48
2022-12-04T21:34:12.484Z,4.67
2022-12-04T21:35:14.594Z,4.61
2022-12-04T21:36:16.750Z,4.59
2022-12-04T21:37:19.003Z,4.59
2022-12-04T21:38:21.495Z,4.67
2022-12-04T21:39:23.912Z,4.69
2022-12-04T21:40:26.319Z,4.69
2022-12-04T21:41:47.221Z,4.68
2022-12-04T21:42:49.535Z,4.72
2022-12-04T21:43:51.692Z,4.78
2022-12-04T21:44:53.979Z,4.66
2022-12-04T21:46:16.993Z,4.63
2022-12-04T21:47:19.675Z,4.61
2022-12-04T21:48:22.294Z,4.65
2022-12-04T21:49:26.010Z,4.67
2022-12-04T21:50:28.939Z,4.63
2022-12-04T21:51:56.290Z,4.63
2022-12-04T21:52:54.826Z,4.61
2022-12-04T21:53:57.718Z,4.63
2022-12-04T21:54:59.837Z,4.62
2022-12-04T21:56:02.090Z,4.60
2022-12-04T21:57:04.305Z,4.59
2022-12-04T21:58:06.459Z,4.57
2022-12-04T21:59:08.660Z,4.56
2022-12-04T22:00:11.393Z,4.59
2022-12-04T22:01:15.795Z,4.61
2022-12-04T22:02:18.161Z,4.54
2022-12-04T22:03:20.349Z,4.58
2022-12-04T22:04:22.857Z,4.56
2022-12-04T22:05:24.986Z,4.58
2022-12-04T22:06:28.028Z,4.63
2022-12-04T22:07:30.245Z,4.59
2022-12-04T22:08:35.162Z,4.63
2022-12-04T22:09:38.600Z,4.58
2022-12-04T22:10:46.463Z,4.69
2022-12-04T22:11:48.683Z,4.60
2022-12-04T22:12:51.062Z,4.58
2022-12-04T22:13:53.260Z,4.67
2022-12-04T22:14:55.406Z,4.58
2022-12-04T22:16:02.569Z,4.66
2022-12-04T22:17:04.715Z,4.52
2022-12-04T22:18:08.976Z,4.58
2022-12-04T22:19:12.667Z,4.55
2022-12-04T22:20:15.428Z,4.60
2022-12-04T22:21:17.534Z,4.56
2022-12-04T22:22:19.645Z,4.63
2022-12-04T22:23:21.798Z,4.66
2022-12-04T22:24:23.910Z,4.66
2022-12-04T22:25:26.089Z,4.64
2022-12-04T22:26:29.154Z,4.63
2022-12-04T22:27:31.259Z,4.61
2022-12-04T22:28:34.360Z,4.66
2022-12-04T22:29:51.834Z,4.71
2022-12-04T22:30:54.131Z,4.67
2022-12-04T22:31:56.345Z,4.78
2022-12-04T22:32:58.469Z,4.79
2022-12-04T22:34:01.597Z,4.84
2022-12-04T22:35:03.876Z,4.82
2022-12-04T22:36:14.710Z,4.88
2022-12-04T22:37:16.736Z,4.88
2022-12-04T22:38:18.754Z,4.73
2022-12-04T22:39:20.865Z,4.73
2022-12-04T22:40:22.976Z,4.72
2022-12-04T22:41:25.816Z,4.78
2022-12-04T22:42:27.965Z,4.74
2022-12-04T22:43:34.098Z,4.78
2022-12-04T22:44:39.839Z,4.73
2022-12-04T22:45:41.970Z,4.73
2022-12-04T22:46:44.183Z,4.72
2022-12-04T22:47:46.420Z,4.73
2022-12-04T22:48:48.585Z,4.79
2022-12-04T22:49:50.990Z,4.76
2022-12-04T22:51:03.857Z,4.80
2022-12-04T22:52:05.981Z,4.76
2022-12-04T22:53:08.127Z,4.75
2022-12-04T22:54:15.377Z,4.82
2022-12-04T22:55:17.589Z,4.72
2022-12-04T22:56:28.443Z,4.73
2022-12-04T22:57:30.616Z,4.89
2022-12-04T22:58:33.649Z,4.85
2022-12-04T22:59:35.887Z,4.78
2022-12-04T23:00:39.265Z,4.75
2022-12-04T23:01:41.501Z,4.74
2022-12-04T23:02:43.653Z,4.83
2022-12-04T23:03:47.049Z,4.82
2022-12-04T23:04:49.239Z,4.80
2022-12-04T23:05:51.379Z,4.82
2022-12-04T23:06:53.482Z,4.88
2022-12-04T23:07:55.908Z,4.90
2022-12-04T23:09:04.786Z,4.92
2022-12-04T23:10:07.576Z,4.84
2022-12-04T23:11:12.747Z,4.87
2022-12-04T23:12:15.197Z,4.87
2022-12-04T23:13:17.561Z,4.78
2022-12-04T23:14:20.009Z,4.84
2022-12-04T23:15:22.205Z,4.88
2022-12-04T23:16:24.829Z,4.88
2022-12-04T23:17:26.989Z,4.89
2022-12-04T23:18:29.879Z,4.89
2022-12-04T23:19:32.540Z,4.90
2022-12-04T23:20:34.677Z,4.90
2022-12-04T23:21:36.785Z,4.85
2022-12-04T23:22:39.253Z,4.88
2022-12-04T23:23:43.488Z,4.95
2022-12-04T23:24:45.690Z,4.87
2022-12-04T23:25:47.820Z,4.90
2022-12-04T23:26:49.935Z,4.93
2022-12-04T23:27:53.501Z,4.95
2022-12-04T23:28:56.198Z,4.93
2022-12-04T23:29:58.288Z,4.93